sensor_id;sensor_type;location;lat;lon;timestamp;temperature;humidity
27164;DHT22;14685;50.618;7.024;2023-05-07T00:00:05;16.70;99.90
27164;DHT22;14685;50.618;7.024;2023-05-07T00:02:36;16.70;99.90
27164;DHT22;14685;50.618;7.024;2023-05-07T00:05:04;16.70;99.90
27164;DHT22;14685;50.618;7.024;2023-05-07T00:07:32;16.60;99.90
27164;DHT22;14685;50.618;7.024;2023-05-07T00:09:58;16.70;99.90
27164;DHT22;14685;50.618;7.024;2023-05-07T00:12:25;16.60;99.90
27164;DHT22;14685;50.618;7.024;2023-05-07T00:14:53;16.70;99.90
27164;DHT22;14685;50.618;7.024;2023-05-07T00:17:19;16.70;99.90
27164;DHT22;14685;50.618;7.024;2023-05-07T00:19:46;16.70;99.90
27164;DHT22;14685;50.618;7.024;2023-05-07T00:22:14;16.70;99.90
27164;DHT22;14685;50.618;7.024;2023-05-07T00:24:41;16.70;99.90
27164;DHT22;14685;50.618;7.024;2023-05-07T00:27:08;16.70;99.90
27164;DHT22;14685;50.618;7.024;2023-05-07T00:29:35;16.70;99.90
27164;DHT22;14685;50.618;7.024;2023-05-07T00:32:03;16.60;99.90
27164;DHT22;14685;50.618;7.024;2023-05-07T00:34:30;16.70;99.90
27164;DHT22;14685;50.618;7.024;2023-05-07T00:36:57;16.70;99.90
27164;DHT22;14685;50.618;7.024;2023-05-07T00:39:24;16.70;99.90
27164;DHT22;14685;50.618;7.024;2023-05-07T00:41:51;16.70;99.90
27164;DHT22;14685;50.618;7.024;2023-05-07T00:44:19;16.60;99.90
27164;DHT22;14685;50.618;7.024;2023-05-07T00:46:46;16.70;99.90
27164;DHT22;14685;50.618;7.024;2023-05-07T00:49:15;16.60;99.90
27164;DHT22;14685;50.618;7.024;2023-05-07T00:51:43;16.60;99.90
27164;DHT22;14685;50.618;7.024;2023-05-07T00:54:10;16.50;99.90
27164;DHT22;14685;50.618;7.024;2023-05-07T00:56:38;16.50;99.90
27164;DHT22;14685;50.618;7.024;2023-05-07T00:59:05;16.50;99.90
27164;DHT22;14685;50.618;7.024;2023-05-07T01:01:33;16.50;99.90
27164;DHT22;14685;50.618;7.024;2023-05-07T01:04:00;16.40;99.90
27164;DHT22;14685;50.618;7.024;2023-05-07T01:06:28;16.30;99.90
27164;DHT22;14685;50.618;7.024;2023-05-07T01:08:56;16.40;99.90
27164;DHT22;14685;50.618;7.024;2023-05-07T01:11:24;16.40;99.90
27164;DHT22;14685;50.618;7.024;2023-05-07T01:13:52;16.30;99.90
27164;DHT22;14685;50.618;7.024;2023-05-07T01:16:19;16.30;99.90
27164;DHT22;14685;50.618;7.024;2023-05-07T01:18:47;16.30;99.90
27164;DHT22;14685;50.618;7.024;2023-05-07T01:21:16;16.30;99.90
27164;DHT22;14685;50.618;7.024;2023-05-07T01:23:45;16.30;99.90
27164;DHT22;14685;50.618;7.024;2023-05-07T01:26:12;16.30;99.90
27164;DHT22;14685;50.618;7.024;2023-05-07T01:28:39;16.40;99.90
27164;DHT22;14685;50.618;7.024;2023-05-07T01:31:06;16.40;99.90
27164;DHT22;14685;50.618;7.024;2023-05-07T01:33:36;16.40;99.90
27164;DHT22;14685;50.618;7.024;2023-05-07T01:36:05;16.40;99.90
27164;DHT22;14685;50.618;7.024;2023-05-07T01:38:33;16.40;99.90
27164;DHT22;14685;50.618;7.024;2023-05-07T01:41:01;16.40;99.90
27164;DHT22;14685;50.618;7.024;2023-05-07T01:43:29;16.50;99.90
27164;DHT22;14685;50.618;7.024;2023-05-07T01:45:57;16.40;99.90
27164;DHT22;14685;50.618;7.024;2023-05-07T01:48:25;16.50;99.90
27164;DHT22;14685;50.618;7.024;2023-05-07T01:50:53;16.40;99.90
27164;DHT22;14685;50.618;7.024;2023-05-07T01:53:20;16.40;99.90
27164;DHT22;14685;50.618;7.024;2023-05-07T01:55:47;16.40;99.90
27164;DHT22;14685;50.618;7.024;2023-05-07T01:58:13;16.40;99.90
27164;DHT22;14685;50.618;7.024;2023-05-07T02:04:13;16.40;99.90
27164;DHT22;14685;50.618;7.024;2023-05-07T02:06:40;16.40;99.90
27164;DHT22;14685;50.618;7.024;2023-05-07T02:09:07;16.30;99.90
27164;DHT22;14685;50.618;7.024;2023-05-07T02:11:38;16.40;99.90
27164;DHT22;14685;50.618;7.024;2023-05-07T02:14:05;16.30;99.90
27164;DHT22;14685;50.618;7.024;2023-05-07T02:16:32;16.30;99.90
27164;DHT22;14685;50.618;7.024;2023-05-07T02:18:59;16.20;99.90
27164;DHT22;14685;50.618;7.024;2023-05-07T02:21:26;16.20;99.90
27164;DHT22;14685;50.618;7.024;2023-05-07T02:23:56;16.20;99.90
27164;DHT22;14685;50.618;7.024;2023-05-07T02:26:22;16.20;99.90
27164;DHT22;14685;50.618;7.024;2023-05-07T02:28:49;16.20;99.90
27164;DHT22;14685;50.618;7.024;2023-05-07T02:31:17;16.10;99.90
27164;DHT22;14685;50.618;7.024;2023-05-07T02:33:44;16.00;99.90
27164;DHT22;14685;50.618;7.024;2023-05-07T02:36:12;16.00;99.90
27164;DHT22;14685;50.618;7.024;2023-05-07T02:38:39;15.90;99.90
27164;DHT22;14685;50.618;7.024;2023-05-07T02:41:06;15.90;99.90
27164;DHT22;14685;50.618;7.024;2023-05-07T02:43:33;15.90;99.90
27164;DHT22;14685;50.618;7.024;2023-05-07T02:46:04;15.90;99.90
27164;DHT22;14685;50.618;7.024;2023-05-07T02:48:31;16.00;99.90
27164;DHT22;14685;50.618;7.024;2023-05-07T02:50:58;16.00;99.90
27164;DHT22;14685;50.618;7.024;2023-05-07T02:53:26;16.00;99.90
27164;DHT22;14685;50.618;7.024;2023-05-07T02:55:54;16.00;99.90
27164;DHT22;14685;50.618;7.024;2023-05-07T02:58:21;16.10;99.90
27164;DHT22;14685;50.618;7.024;2023-05-07T03:00:48;16.10;99.90
27164;DHT22;14685;50.618;7.024;2023-05-07T03:03:15;16.00;99.90
27164;DHT22;14685;50.618;7.024;2023-05-07T03:05:42;16.00;99.90
27164;DHT22;14685;50.618;7.024;2023-05-07T03:08:09;16.10;99.90
27164;DHT22;14685;50.618;7.024;2023-05-07T03:10:37;16.10;99.90
27164;DHT22;14685;50.618;7.024;2023-05-07T03:13:04;16.10;99.90
27164;DHT22;14685;50.618;7.024;2023-05-07T03:15:31;16.10;99.90
27164;DHT22;14685;50.618;7.024;2023-05-07T03:17:58;16.10;99.90
27164;DHT22;14685;50.618;7.024;2023-05-07T03:20:24;16.20;99.90
27164;DHT22;14685;50.618;7.024;2023-05-07T03:22:51;16.20;99.90
27164;DHT22;14685;50.618;7.024;2023-05-07T03:25:18;16.20;99.90
27164;DHT22;14685;50.618;7.024;2023-05-07T03:27:45;16.20;99.90
27164;DHT22;14685;50.618;7.024;2023-05-07T03:30:12;16.20;99.90
27164;DHT22;14685;50.618;7.024;2023-05-07T03:32:39;16.20;99.90
27164;DHT22;14685;50.618;7.024;2023-05-07T03:35:07;16.20;99.90
27164;DHT22;14685;50.618;7.024;2023-05-07T03:37:34;16.10;99.90
27164;DHT22;14685;50.618;7.024;2023-05-07T03:40:01;16.10;99.90
27164;DHT22;14685;50.618;7.024;2023-05-07T03:42:28;16.00;99.90
27164;DHT22;14685;50.618;7.024;2023-05-07T03:44:55;15.90;99.90
27164;DHT22;14685;50.618;7.024;2023-05-07T03:47:22;15.90;99.90
27164;DHT22;14685;50.618;7.024;2023-05-07T03:49:49;15.90;99.90
27164;DHT22;14685;50.618;7.024;2023-05-07T03:52:19;15.90;99.90
27164;DHT22;14685;50.618;7.024;2023-05-07T03:54:50;15.90;99.90
27164;DHT22;14685;50.618;7.024;2023-05-07T03:57:17;15.90;99.90
27164;DHT22;14685;50.618;7.024;2023-05-07T03:59:44;15.90;99.90
27164;DHT22;14685;50.618;7.024;2023-05-07T04:02:11;16.00;99.90
27164;DHT22;14685;50.618;7.024;2023-05-07T04:04:38;16.00;99.90
27164;DHT22;14685;50.618;7.024;2023-05-07T04:07:05;16.00;99.90
27164;DHT22;14685;50.618;7.024;2023-05-07T04:09:32;16.00;99.90
27164;DHT22;14685;50.618;7.024;2023-05-07T04:11:58;16.10;99.90
27164;DHT22;14685;50.618;7.024;2023-05-07T04:14:25;16.10;99.90
27164;DHT22;14685;50.618;7.024;2023-05-07T04:16:52;16.10;99.90
27164;DHT22;14685;50.618;7.024;2023-05-07T04:19:20;16.10;99.90
27164;DHT22;14685;50.618;7.024;2023-05-07T04:21:47;16.00;99.90
27164;DHT22;14685;50.618;7.024;2023-05-07T04:24:13;16.00;99.90
27164;DHT22;14685;50.618;7.024;2023-05-07T04:26:40;16.00;99.90
27164;DHT22;14685;50.618;7.024;2023-05-07T04:29:07;16.00;99.90
27164;DHT22;14685;50.618;7.024;2023-05-07T04:31:34;16.10;99.90
27164;DHT22;14685;50.618;7.024;2023-05-07T04:34:01;16.10;99.90
27164;DHT22;14685;50.618;7.024;2023-05-07T04:36:28;16.10;99.90
27164;DHT22;14685;50.618;7.024;2023-05-07T04:38:56;16.00;99.90
27164;DHT22;14685;50.618;7.024;2023-05-07T04:41:23;16.00;99.90
27164;DHT22;14685;50.618;7.024;2023-05-07T04:43:49;16.00;99.90
27164;DHT22;14685;50.618;7.024;2023-05-07T04:46:16;16.00;99.90
27164;DHT22;14685;50.618;7.024;2023-05-07T04:48:43;16.00;99.90
27164;DHT22;14685;50.618;7.024;2023-05-07T04:51:10;16.10;99.90
27164;DHT22;14685;50.618;7.024;2023-05-07T04:53:37;16.10;99.90
27164;DHT22;14685;50.618;7.024;2023-05-07T04:56:04;16.10;99.90
27164;DHT22;14685;50.618;7.024;2023-05-07T04:58:32;16.20;99.90
27164;DHT22;14685;50.618;7.024;2023-05-07T05:00:59;16.10;99.90
27164;DHT22;14685;50.618;7.024;2023-05-07T05:03:27;16.10;99.90
27164;DHT22;14685;50.618;7.024;2023-05-07T05:05:54;16.20;99.90
27164;DHT22;14685;50.618;7.024;2023-05-07T05:08:21;16.10;99.90
27164;DHT22;14685;50.618;7.024;2023-05-07T05:10:48;16.10;99.90
27164;DHT22;14685;50.618;7.024;2023-05-07T05:13:16;16.00;99.90
27164;DHT22;14685;50.618;7.024;2023-05-07T05:15:43;16.00;99.90
27164;DHT22;14685;50.618;7.024;2023-05-07T05:18:10;16.10;99.90
27164;DHT22;14685;50.618;7.024;2023-05-07T05:20:37;16.10;99.90
27164;DHT22;14685;50.618;7.024;2023-05-07T05:23:04;16.10;99.90
27164;DHT22;14685;50.618;7.024;2023-05-07T05:25:32;16.20;99.90
27164;DHT22;14685;50.618;7.024;2023-05-07T05:27:59;16.20;99.90
27164;DHT22;14685;50.618;7.024;2023-05-07T05:30:26;16.20;99.90
27164;DHT22;14685;50.618;7.024;2023-05-07T05:32:53;16.20;99.90
27164;DHT22;14685;50.618;7.024;2023-05-07T05:35:20;16.10;99.90
27164;DHT22;14685;50.618;7.024;2023-05-07T05:37:47;16.10;99.90
27164;DHT22;14685;50.618;7.024;2023-05-07T05:40:14;16.10;99.90
27164;DHT22;14685;50.618;7.024;2023-05-07T05:42:41;16.20;99.90
27164;DHT22;14685;50.618;7.024;2023-05-07T05:45:08;16.30;99.90
27164;DHT22;14685;50.618;7.024;2023-05-07T05:47:37;16.30;99.90
27164;DHT22;14685;50.618;7.024;2023-05-07T05:50:05;16.40;99.90
27164;DHT22;14685;50.618;7.024;2023-05-07T05:52:33;16.40;99.90
27164;DHT22;14685;50.618;7.024;2023-05-07T05:54:59;16.40;99.90
27164;DHT22;14685;50.618;7.024;2023-05-07T05:59:56;16.70;99.90
27164;DHT22;14685;50.618;7.024;2023-05-07T06:02:23;16.70;99.90
27164;DHT22;14685;50.618;7.024;2023-05-07T06:04:50;16.70;99.90
27164;DHT22;14685;50.618;7.024;2023-05-07T06:07:17;16.70;99.90
27164;DHT22;14685;50.618;7.024;2023-05-07T06:09:44;16.70;99.90
27164;DHT22;14685;50.618;7.024;2023-05-07T06:12:11;16.60;99.90
27164;DHT22;14685;50.618;7.024;2023-05-07T06:14:38;16.70;99.90
27164;DHT22;14685;50.618;7.024;2023-05-07T06:17:06;16.60;99.90
27164;DHT22;14685;50.618;7.024;2023-05-07T06:19:33;16.60;99.90
27164;DHT22;14685;50.618;7.024;2023-05-07T06:22:00;16.60;99.90
27164;DHT22;14685;50.618;7.024;2023-05-07T06:24:28;16.50;99.90
27164;DHT22;14685;50.618;7.024;2023-05-07T06:26:55;16.50;99.90
27164;DHT22;14685;50.618;7.024;2023-05-07T06:29:23;16.50;99.90
27164;DHT22;14685;50.618;7.024;2023-05-07T06:31:50;16.60;99.90
27164;DHT22;14685;50.618;7.024;2023-05-07T06:34:17;16.60;99.90
27164;DHT22;14685;50.618;7.024;2023-05-07T06:36:44;16.70;99.90
27164;DHT22;14685;50.618;7.024;2023-05-07T06:39:11;16.50;99.90
27164;DHT22;14685;50.618;7.024;2023-05-07T06:41:37;16.60;99.90
27164;DHT22;14685;50.618;7.024;2023-05-07T06:44:05;16.70;99.90
27164;DHT22;14685;50.618;7.024;2023-05-07T06:46:32;16.70;99.90
27164;DHT22;14685;50.618;7.024;2023-05-07T06:48:59;16.70;99.90
27164;DHT22;14685;50.618;7.024;2023-05-07T06:51:26;16.70;99.90
27164;DHT22;14685;50.618;7.024;2023-05-07T06:53:53;16.80;99.90
27164;DHT22;14685;50.618;7.024;2023-05-07T06:56:20;16.80;99.90
27164;DHT22;14685;50.618;7.024;2023-05-07T06:58:47;16.80;99.90
27164;DHT22;14685;50.618;7.024;2023-05-07T07:01:14;16.80;99.90
27164;DHT22;14685;50.618;7.024;2023-05-07T07:03:41;16.90;99.90
27164;DHT22;14685;50.618;7.024;2023-05-07T07:06:08;17.00;99.90
27164;DHT22;14685;50.618;7.024;2023-05-07T07:08:35;17.00;99.90
27164;DHT22;14685;50.618;7.024;2023-05-07T07:11:06;17.20;99.90
27164;DHT22;14685;50.618;7.024;2023-05-07T07:13:33;17.30;99.90
27164;DHT22;14685;50.618;7.024;2023-05-07T07:16:00;17.30;99.90
27164;DHT22;14685;50.618;7.024;2023-05-07T07:18:27;17.40;99.90
27164;DHT22;14685;50.618;7.024;2023-05-07T07:20:54;17.40;99.90
27164;DHT22;14685;50.618;7.024;2023-05-07T07:23:21;17.50;99.90
27164;DHT22;14685;50.618;7.024;2023-05-07T07:25:48;17.60;99.90
27164;DHT22;14685;50.618;7.024;2023-05-07T07:28:15;17.80;99.90
27164;DHT22;14685;50.618;7.024;2023-05-07T07:30:42;17.90;99.90
27164;DHT22;14685;50.618;7.024;2023-05-07T07:33:09;18.00;99.90
27164;DHT22;14685;50.618;7.024;2023-05-07T07:35:36;18.00;99.90
27164;DHT22;14685;50.618;7.024;2023-05-07T07:38:03;18.10;99.90
27164;DHT22;14685;50.618;7.024;2023-05-07T07:40:29;18.20;99.90
27164;DHT22;14685;50.618;7.024;2023-05-07T07:42:57;18.30;99.90
27164;DHT22;14685;50.618;7.024;2023-05-07T07:45:24;18.30;99.90
27164;DHT22;14685;50.618;7.024;2023-05-07T07:47:51;18.30;99.90
27164;DHT22;14685;50.618;7.024;2023-05-07T07:50:18;18.30;99.90
27164;DHT22;14685;50.618;7.024;2023-05-07T07:53:04;18.40;99.90
27164;DHT22;14685;50.618;7.024;2023-05-07T07:57:59;18.60;99.90
27164;DHT22;14685;50.618;7.024;2023-05-07T08:00:26;18.60;99.90
27164;DHT22;14685;50.618;7.024;2023-05-07T08:02:53;18.60;99.90
27164;DHT22;14685;50.618;7.024;2023-05-07T08:05:20;18.70;99.90
27164;DHT22;14685;50.618;7.024;2023-05-07T08:07:47;18.70;99.90
27164;DHT22;14685;50.618;7.024;2023-05-07T08:10:18;18.80;99.90
27164;DHT22;14685;50.618;7.024;2023-05-07T08:12:49;18.80;99.90
27164;DHT22;14685;50.618;7.024;2023-05-07T08:15:17;18.90;99.90
27164;DHT22;14685;50.618;7.024;2023-05-07T08:17:44;18.90;99.90
27164;DHT22;14685;50.618;7.024;2023-05-07T08:20:11;19.00;99.90
27164;DHT22;14685;50.618;7.024;2023-05-07T08:22:38;19.00;99.90
27164;DHT22;14685;50.618;7.024;2023-05-07T08:25:05;19.20;99.90
27164;DHT22;14685;50.618;7.024;2023-05-07T08:27:32;19.30;99.90
27164;DHT22;14685;50.618;7.024;2023-05-07T08:29:59;19.40;99.90
27164;DHT22;14685;50.618;7.024;2023-05-07T08:32:26;19.40;99.90
27164;DHT22;14685;50.618;7.024;2023-05-07T08:34:54;19.50;99.90
27164;DHT22;14685;50.618;7.024;2023-05-07T08:37:21;19.60;99.90
27164;DHT22;14685;50.618;7.024;2023-05-07T08:39:48;19.60;99.90
27164;DHT22;14685;50.618;7.024;2023-05-07T08:42:16;19.80;99.90
27164;DHT22;14685;50.618;7.024;2023-05-07T08:44:45;19.90;99.90
27164;DHT22;14685;50.618;7.024;2023-05-07T08:47:13;19.90;99.90
27164;DHT22;14685;50.618;7.024;2023-05-07T08:49:40;20.10;99.90
27164;DHT22;14685;50.618;7.024;2023-05-07T08:52:08;20.20;99.90
27164;DHT22;14685;50.618;7.024;2023-05-07T08:54:37;20.30;99.90
27164;DHT22;14685;50.618;7.024;2023-05-07T08:57:04;20.50;99.90
27164;DHT22;14685;50.618;7.024;2023-05-07T08:59:31;20.60;99.90
27164;DHT22;14685;50.618;7.024;2023-05-07T09:01:58;20.70;99.90
27164;DHT22;14685;50.618;7.024;2023-05-07T09:04:25;20.70;99.90
27164;DHT22;14685;50.618;7.024;2023-05-07T09:06:53;20.80;99.90
27164;DHT22;14685;50.618;7.024;2023-05-07T09:09:21;20.90;99.90
27164;DHT22;14685;50.618;7.024;2023-05-07T09:11:48;21.10;99.90
27164;DHT22;14685;50.618;7.024;2023-05-07T09:14:23;21.30;99.90
27164;DHT22;14685;50.618;7.024;2023-05-07T09:19:26;21.70;99.90
27164;DHT22;14685;50.618;7.024;2023-05-07T09:22:04;21.80;99.90
27164;DHT22;14685;50.618;7.024;2023-05-07T09:27:02;22.30;99.90
27164;DHT22;14685;50.618;7.024;2023-05-07T09:29:29;22.50;99.90
27164;DHT22;14685;50.618;7.024;2023-05-07T09:32:03;22.50;99.90
27164;DHT22;14685;50.618;7.024;2023-05-07T09:34:32;22.60;99.90
27164;DHT22;14685;50.618;7.024;2023-05-07T09:37:01;22.70;99.90
27164;DHT22;14685;50.618;7.024;2023-05-07T09:39:45;22.80;99.90
27164;DHT22;14685;50.618;7.024;2023-05-07T09:42:14;23.00;99.90
27164;DHT22;14685;50.618;7.024;2023-05-07T09:44:43;23.10;99.90
27164;DHT22;14685;50.618;7.024;2023-05-07T09:47:11;23.20;99.90
27164;DHT22;14685;50.618;7.024;2023-05-07T09:49:43;23.20;99.90
27164;DHT22;14685;50.618;7.024;2023-05-07T09:52:14;23.20;99.90
27164;DHT22;14685;50.618;7.024;2023-05-07T09:54:41;23.20;99.90
27164;DHT22;14685;50.618;7.024;2023-05-07T09:57:13;23.20;99.90
27164;DHT22;14685;50.618;7.024;2023-05-07T09:59:42;23.30;99.90
27164;DHT22;14685;50.618;7.024;2023-05-07T10:02:10;23.40;99.90
27164;DHT22;14685;50.618;7.024;2023-05-07T10:04:40;23.30;99.90
27164;DHT22;14685;50.618;7.024;2023-05-07T10:07:07;23.20;99.90
27164;DHT22;14685;50.618;7.024;2023-05-07T10:09:36;23.20;99.90
27164;DHT22;14685;50.618;7.024;2023-05-07T10:12:06;23.10;99.90
27164;DHT22;14685;50.618;7.024;2023-05-07T10:14:33;23.10;99.90
27164;DHT22;14685;50.618;7.024;2023-05-07T10:17:03;23.20;99.90
27164;DHT22;14685;50.618;7.024;2023-05-07T10:19:31;23.30;99.90
27164;DHT22;14685;50.618;7.024;2023-05-07T10:22:04;23.50;99.90
27164;DHT22;14685;50.618;7.024;2023-05-07T10:24:33;23.60;99.90
27164;DHT22;14685;50.618;7.024;2023-05-07T10:27:11;23.70;99.90
27164;DHT22;14685;50.618;7.024;2023-05-07T10:30:13;23.70;99.90
27164;DHT22;14685;50.618;7.024;2023-05-07T10:32:51;23.80;99.90
27164;DHT22;14685;50.618;7.024;2023-05-07T10:35:29;23.80;99.90
27164;DHT22;14685;50.618;7.024;2023-05-07T10:37:58;23.90;99.90
27164;DHT22;14685;50.618;7.024;2023-05-07T10:40:25;24.00;99.90
27164;DHT22;14685;50.618;7.024;2023-05-07T10:42:56;24.10;99.90
27164;DHT22;14685;50.618;7.024;2023-05-07T10:45:25;24.10;99.90
27164;DHT22;14685;50.618;7.024;2023-05-07T10:48:14;24.20;99.90
27164;DHT22;14685;50.618;7.024;2023-05-07T10:51:22;24.20;99.90
27164;DHT22;14685;50.618;7.024;2023-05-07T10:56:37;24.30;99.90
27164;DHT22;14685;50.618;7.024;2023-05-07T11:04:25;24.00;99.90
27164;DHT22;14685;50.618;7.024;2023-05-07T11:15:07;23.90;99.90
27164;DHT22;14685;50.618;7.024;2023-05-07T11:17:51;23.90;99.90
27164;DHT22;14685;50.618;7.024;2023-05-07T11:20:20;24.00;99.90
27164;DHT22;14685;50.618;7.024;2023-05-07T11:22:47;24.00;99.90
27164;DHT22;14685;50.618;7.024;2023-05-07T11:25:18;24.00;99.90
27164;DHT22;14685;50.618;7.024;2023-05-07T11:27:48;24.10;99.90
27164;DHT22;14685;50.618;7.024;2023-05-07T11:30:18;24.10;99.90
27164;DHT22;14685;50.618;7.024;2023-05-07T11:32:48;24.00;99.90
27164;DHT22;14685;50.618;7.024;2023-05-07T11:35:15;24.00;99.90
27164;DHT22;14685;50.618;7.024;2023-05-07T11:37:43;24.00;99.90
27164;DHT22;14685;50.618;7.024;2023-05-07T11:40:12;24.20;99.90
27164;DHT22;14685;50.618;7.024;2023-05-07T11:42:42;24.20;99.90
27164;DHT22;14685;50.618;7.024;2023-05-07T11:45:10;24.30;99.90
27164;DHT22;14685;50.618;7.024;2023-05-07T11:47:37;24.30;99.90
27164;DHT22;14685;50.618;7.024;2023-05-07T11:50:06;24.30;99.90
27164;DHT22;14685;50.618;7.024;2023-05-07T11:52:34;24.20;99.90
27164;DHT22;14685;50.618;7.024;2023-05-07T11:55:03;24.20;99.90
27164;DHT22;14685;50.618;7.024;2023-05-07T11:57:33;24.20;99.90
27164;DHT22;14685;50.618;7.024;2023-05-07T12:00:01;24.20;99.90
27164;DHT22;14685;50.618;7.024;2023-05-07T12:02:30;24.10;99.90
27164;DHT22;14685;50.618;7.024;2023-05-07T12:05:00;24.20;99.90
27164;DHT22;14685;50.618;7.024;2023-05-07T12:07:27;24.20;99.90
27164;DHT22;14685;50.618;7.024;2023-05-07T12:09:54;24.30;99.90
27164;DHT22;14685;50.618;7.024;2023-05-07T12:12:21;24.30;99.90
27164;DHT22;14685;50.618;7.024;2023-05-07T12:14:48;24.30;99.90
27164;DHT22;14685;50.618;7.024;2023-05-07T12:17:15;24.30;99.90
27164;DHT22;14685;50.618;7.024;2023-05-07T12:19:46;24.40;99.90
27164;DHT22;14685;50.618;7.024;2023-05-07T12:22:13;24.30;99.90
27164;DHT22;14685;50.618;7.024;2023-05-07T12:25:00;24.20;99.90
27164;DHT22;14685;50.618;7.024;2023-05-07T12:27:27;24.30;99.90
27164;DHT22;14685;50.618;7.024;2023-05-07T12:29:54;24.20;99.90
27164;DHT22;14685;50.618;7.024;2023-05-07T12:32:23;24.20;99.90
27164;DHT22;14685;50.618;7.024;2023-05-07T12:34:51;24.20;99.90
27164;DHT22;14685;50.618;7.024;2023-05-07T12:37:24;24.30;99.90
27164;DHT22;14685;50.618;7.024;2023-05-07T12:42:36;24.40;99.90
27164;DHT22;14685;50.618;7.024;2023-05-07T12:45:13;24.40;99.90
27164;DHT22;14685;50.618;7.024;2023-05-07T12:47:46;24.40;99.90
27164;DHT22;14685;50.618;7.024;2023-05-07T12:50:15;24.40;99.90
27164;DHT22;14685;50.618;7.024;2023-05-07T12:52:44;24.50;99.90
27164;DHT22;14685;50.618;7.024;2023-05-07T12:55:14;24.40;99.90
27164;DHT22;14685;50.618;7.024;2023-05-07T12:57:42;24.50;99.90
27164;DHT22;14685;50.618;7.024;2023-05-07T13:00:10;24.50;99.90
27164;DHT22;14685;50.618;7.024;2023-05-07T13:02:38;24.60;99.90
27164;DHT22;14685;50.618;7.024;2023-05-07T13:05:08;24.50;99.90
27164;DHT22;14685;50.618;7.024;2023-05-07T13:07:35;24.50;99.90
27164;DHT22;14685;50.618;7.024;2023-05-07T13:10:04;24.40;99.90
27164;DHT22;14685;50.618;7.024;2023-05-07T13:12:31;24.40;99.90
27164;DHT22;14685;50.618;7.024;2023-05-07T13:14:59;24.30;99.90
27164;DHT22;14685;50.618;7.024;2023-05-07T13:17:26;24.30;99.90
27164;DHT22;14685;50.618;7.024;2023-05-07T13:19:53;24.20;99.90
27164;DHT22;14685;50.618;7.024;2023-05-07T13:22:20;24.20;99.90
27164;DHT22;14685;50.618;7.024;2023-05-07T13:24:47;24.20;99.90
27164;DHT22;14685;50.618;7.024;2023-05-07T13:27:14;24.20;99.90
27164;DHT22;14685;50.618;7.024;2023-05-07T13:29:40;24.20;99.90
27164;DHT22;14685;50.618;7.024;2023-05-07T13:32:07;24.10;99.90
27164;DHT22;14685;50.618;7.024;2023-05-07T13:34:34;24.10;99.90
27164;DHT22;14685;50.618;7.024;2023-05-07T13:37:03;24.00;99.90
27164;DHT22;14685;50.618;7.024;2023-05-07T13:39:37;24.00;99.90
27164;DHT22;14685;50.618;7.024;2023-05-07T13:42:03;23.90;99.90
27164;DHT22;14685;50.618;7.024;2023-05-07T13:44:31;23.80;99.90
27164;DHT22;14685;50.618;7.024;2023-05-07T13:46:59;23.70;99.90
27164;DHT22;14685;50.618;7.024;2023-05-07T13:49:27;23.60;99.90
27164;DHT22;14685;50.618;7.024;2023-05-07T13:51:54;23.50;99.90
27164;DHT22;14685;50.618;7.024;2023-05-07T13:54:21;23.50;99.90
27164;DHT22;14685;50.618;7.024;2023-05-07T13:56:50;23.50;99.90
27164;DHT22;14685;50.618;7.024;2023-05-07T13:59:19;23.30;99.90
27164;DHT22;14685;50.618;7.024;2023-05-07T14:01:47;23.40;99.90
27164;DHT22;14685;50.618;7.024;2023-05-07T14:04:14;23.30;99.90
27164;DHT22;14685;50.618;7.024;2023-05-07T14:06:44;23.30;99.90
27164;DHT22;14685;50.618;7.024;2023-05-07T14:09:13;23.20;99.90
27164;DHT22;14685;50.618;7.024;2023-05-07T14:11:40;23.10;99.90
27164;DHT22;14685;50.618;7.024;2023-05-07T14:14:08;23.00;99.90
27164;DHT22;14685;50.618;7.024;2023-05-07T14:16:38;23.00;99.90
27164;DHT22;14685;50.618;7.024;2023-05-07T14:19:07;22.90;99.90
27164;DHT22;14685;50.618;7.024;2023-05-07T14:21:35;22.90;99.90
27164;DHT22;14685;50.618;7.024;2023-05-07T14:24:02;22.90;99.90
27164;DHT22;14685;50.618;7.024;2023-05-07T14:26:29;22.80;99.90
27164;DHT22;14685;50.618;7.024;2023-05-07T14:28:55;22.80;99.90
27164;DHT22;14685;50.618;7.024;2023-05-07T14:33:54;22.70;99.90
27164;DHT22;14685;50.618;7.024;2023-05-07T14:36:21;22.70;99.90
27164;DHT22;14685;50.618;7.024;2023-05-07T14:38:49;22.60;99.90
27164;DHT22;14685;50.618;7.024;2023-05-07T14:41:17;22.50;99.90
27164;DHT22;14685;50.618;7.024;2023-05-07T14:43:44;22.50;99.90
27164;DHT22;14685;50.618;7.024;2023-05-07T14:46:17;22.50;99.90
27164;DHT22;14685;50.618;7.024;2023-05-07T14:48:45;22.40;99.90
27164;DHT22;14685;50.618;7.024;2023-05-07T14:51:16;22.50;99.90
27164;DHT22;14685;50.618;7.024;2023-05-07T14:53:45;22.40;99.90
27164;DHT22;14685;50.618;7.024;2023-05-07T14:56:11;22.40;99.90
27164;DHT22;14685;50.618;7.024;2023-05-07T14:58:39;22.30;99.90
27164;DHT22;14685;50.618;7.024;2023-05-07T15:01:06;22.30;99.90
27164;DHT22;14685;50.618;7.024;2023-05-07T15:03:34;22.30;99.90
27164;DHT22;14685;50.618;7.024;2023-05-07T15:06:02;22.20;99.90
27164;DHT22;14685;50.618;7.024;2023-05-07T15:08:29;22.10;99.90
27164;DHT22;14685;50.618;7.024;2023-05-07T15:10:56;22.10;99.90
27164;DHT22;14685;50.618;7.024;2023-05-07T15:13:23;22.00;99.90
27164;DHT22;14685;50.618;7.024;2023-05-07T15:15:53;22.00;99.90
27164;DHT22;14685;50.618;7.024;2023-05-07T15:18:20;21.90;99.90
27164;DHT22;14685;50.618;7.024;2023-05-07T15:20:48;21.90;99.90
27164;DHT22;14685;50.618;7.024;2023-05-07T15:23:15;21.80;99.90
27164;DHT22;14685;50.618;7.024;2023-05-07T15:25:42;21.80;99.90
27164;DHT22;14685;50.618;7.024;2023-05-07T15:28:09;21.80;99.90
27164;DHT22;14685;50.618;7.024;2023-05-07T15:30:35;21.70;99.90
27164;DHT22;14685;50.618;7.024;2023-05-07T15:33:02;21.70;99.90
27164;DHT22;14685;50.618;7.024;2023-05-07T15:35:30;21.70;99.90
27164;DHT22;14685;50.618;7.024;2023-05-07T15:37:57;21.70;99.90
27164;DHT22;14685;50.618;7.024;2023-05-07T15:40:26;21.60;99.90
27164;DHT22;14685;50.618;7.024;2023-05-07T15:42:54;21.60;99.90
27164;DHT22;14685;50.618;7.024;2023-05-07T15:45:23;21.60;99.90
27164;DHT22;14685;50.618;7.024;2023-05-07T15:47:50;21.60;99.90
27164;DHT22;14685;50.618;7.024;2023-05-07T15:50:17;21.60;99.90
27164;DHT22;14685;50.618;7.024;2023-05-07T15:52:44;21.60;99.90
27164;DHT22;14685;50.618;7.024;2023-05-07T15:55:13;21.50;99.90
27164;DHT22;14685;50.618;7.024;2023-05-07T15:57:40;21.50;99.90
27164;DHT22;14685;50.618;7.024;2023-05-07T16:00:09;21.50;99.90
27164;DHT22;14685;50.618;7.024;2023-05-07T16:02:38;21.40;99.90
27164;DHT22;14685;50.618;7.024;2023-05-07T16:05:08;21.40;99.90
27164;DHT22;14685;50.618;7.024;2023-05-07T16:07:37;21.30;99.90
27164;DHT22;14685;50.618;7.024;2023-05-07T16:10:06;21.20;99.90